EDT,Max TemperatureF,Mean TemperatureF,Min TemperatureF,Max Dew PointF,MeanDew PointF,Min DewpointF,Max Humidity, Mean Humidity, Min Humidity, Max Sea Level PressureIn, Mean Sea Level PressureIn, Min Sea Level PressureIn, Max VisibilityMiles, Mean VisibilityMiles, Min VisibilityMiles, Max Wind SpeedMPH, Mean Wind SpeedMPH, Max Gust SpeedMPH,PrecipitationIn, CloudCover, Events, WindDirDegrees
2013-3-1,23,21,19,16,12,8,78,69,55,30.34,30.30,30.22,,,,26,19,28,0.00,,,11
2013-3-2,21,20,19,15,12,7,78,69,55,30.28,30.24,30.15,,,,18,15,22,0.00,,,6
2013-3-3,24,16,8,16,11,3,80,71,59,30.15,30.14,30.12,,,,14,6,,0.02,,,358
2013-3-4,25,18,10,15,11,6,84,74,62,30.22,30.19,30.13,,,,13,6,,0.00,,,105
2013-3-5,32,18,3,25,13,-1,84,76,63,30.21,30.16,30.12,,,,17,7,,0.00,,,15
2013-3-6,30,27,24,26,22,15,88,79,69,30.32,30.25,30.15,,,,16,8,21,0.08,,,345
2013-3-7,27,24,21,20,17,14,85,71,63,30.47,30.40,30.31,,,,13,5,,0.00,,,304
2013-3-8,35,25,15,23,20,12,88,71,54,30.51,30.42,30.31,,,,16,6,22,0.00,,,189
2013-3-9,39,34,28,31,26,23,85,73,55,30.29,30.10,29.85,,,,15,11,24,0.07,,,178
2013-3-10,37,35,33,33,31,28,89,85,79,29.96,29.87,29.78,,,,18,9,23,0.20,,,346
2013-3-11,33,30,28,30,29,24,92,89,85,29.85,29.61,29.50,,,,22,18,24,0.33,,,14
2013-3-12,28,24,19,24,16,10,85,74,60,29.88,29.75,29.57,,,,18,11,23,0.14,,,315
2013-3-13,27,24,21,17,14,11,81,66,58,30.22,30.09,29.90,,,,24,18,34,0.02,,,344
2013-3-14,37,24,10,22,14,6,84,64,39,30.24,30.13,29.93,,,,12,6,16,0.01,,,198
2013-3-15,34,26,19,28,16,7,82,68,57,30.03,29.97,29.87,,,,24,13,31,0.05,,,342
2013-3-16,23,18,16,13,10,6,77,67,55,30.10,30.02,29.98,,,,20,6,31,0.07,,,10
2013-3-17,26,20,15,8,5,3,68,57,43,30.33,30.25,30.12,,,,21,12,30,0.00,,,344
2013-3-18,39,26,14,25,15,5,85,68,38,30.16,29.81,29.47,,,,20,9,29,0.20,,,161
2013-3-19,30,26,23,26,19,13,89,73,56,29.81,29.57,29.39,,,,20,8,34,0.25,,,284
2013-3-20,27,22,19,21,15,9,81,72,60,29.92,29.85,29.80,,,,21,16,34,0.18,,,312
2013-3-21,27,26,24,23,17,15,85,72,66,29.99,29.94,29.89,,,,22,18,26,0.10,,,347
2013-3-22,30,28,27,24,21,19,82,75,67,30.09,30.01,29.95,,,,16,13,22,0.02,,,345
2013-3-23,34,30,27,25,23,20,82,74,64,30.16,30.12,30.08,,,,16,7,,0.01,,,326
2013-3-24,30,27,24,23,21,18,84,74,64,30.14,30.05,29.95,,,,18,7,,0.00,,,15
2013-3-25,36,26,19,27,23,15,82,76,70,30.08,30.00,29.94,,,,20,8,,0.02,,,5
2013-3-26,37,35,33,29,28,26,82,76,70,30.18,30.14,30.08,,,,21,12,26,0.00,,,346
2013-3-27,36,34,32,28,26,22,82,71,61,30.26,30.22,30.16,,,,18,14,24,0.00,,,326
2013-3-28,37,30,24,29,23,19,81,70,53,30.30,30.28,30.26,,,,15,5,,0.00,,,326
2013-3-29,42,30,19,24,18,13,82,62,40,30.31,30.26,30.18,,,,9,5,,0.00,,,196
2013-3-30,43,36,30,32,26,18,86,69,43,30.16,29.96,29.75,,,,20,11,25,0.21,,,195
2013-3-31,43,34,25,33,27,17,92,76,53,29.81,29.65,29.55,,,,23,9,38,0.01,,,278